sensor_id;sensor_type;location;lat;lon;timestamp;pressure;altitude;pressure_sealevel;temperature;humidity
82416;BME280;72058;47.782;10.618;2024-02-21T00:01:52;94420.44;;;2.27;74.80
82416;BME280;72058;47.782;10.618;2024-02-21T00:04:17;94411.44;;;2.00;76.25
82416;BME280;72058;47.782;10.618;2024-02-21T00:06:42;94411.50;;;2.22;75.33
82416;BME280;72058;47.782;10.618;2024-02-21T00:09:08;94412.78;;;2.36;74.93
82416;BME280;72058;47.782;10.618;2024-02-21T00:11:34;94409.28;;;2.36;74.34
82416;BME280;72058;47.782;10.618;2024-02-21T00:14:00;94407.84;;;2.28;74.93
82416;BME280;72058;47.782;10.618;2024-02-21T00:16:25;94410.22;;;2.24;74.45
82416;BME280;72058;47.782;10.618;2024-02-21T00:18:51;94407.25;;;2.26;74.33
82416;BME280;72058;47.782;10.618;2024-02-21T00:21:16;94398.28;;;1.99;75.52
82416;BME280;72058;47.782;10.618;2024-02-21T00:23:44;94400.94;;;1.82;76.24
82416;BME280;72058;47.782;10.618;2024-02-21T00:26:11;94390.28;;;1.70;76.71
82416;BME280;72058;47.782;10.618;2024-02-21T00:28:37;94396.47;;;1.87;76.56
82416;BME280;72058;47.782;10.618;2024-02-21T00:31:03;94386.38;;;2.11;75.87
82416;BME280;72058;47.782;10.618;2024-02-21T00:33:28;94377.59;;;2.33;75.10
82416;BME280;72058;47.782;10.618;2024-02-21T00:35:53;94380.91;;;2.40;74.49
82416;BME280;72058;47.782;10.618;2024-02-21T00:38:19;94381.72;;;2.40;74.63
82416;BME280;72058;47.782;10.618;2024-02-21T00:40:44;94378.03;;;2.46;74.08
82416;BME280;72058;47.782;10.618;2024-02-21T00:43:09;94366.06;;;2.54;73.79
82416;BME280;72058;47.782;10.618;2024-02-21T00:45:35;94373.38;;;2.58;73.39
82416;BME280;72058;47.782;10.618;2024-02-21T00:48:00;94369.03;;;2.74;72.99
82416;BME280;72058;47.782;10.618;2024-02-21T00:50:25;94365.47;;;2.90;72.41
82416;BME280;72058;47.782;10.618;2024-02-21T00:52:51;94364.69;;;2.95;72.28
82416;BME280;72058;47.782;10.618;2024-02-21T00:55:16;94366.84;;;2.93;72.59
82416;BME280;72058;47.782;10.618;2024-02-21T00:57:41;94363.50;;;2.86;72.10
82416;BME280;72058;47.782;10.618;2024-02-21T01:00:07;94364.47;;;2.75;72.57
82416;BME280;72058;47.782;10.618;2024-02-21T01:02:33;94362.75;;;2.68;73.09
82416;BME280;72058;47.782;10.618;2024-02-21T01:04:58;94359.97;;;2.80;72.64
82416;BME280;72058;47.782;10.618;2024-02-21T01:07:24;94366.00;;;2.71;72.20
82416;BME280;72058;47.782;10.618;2024-02-21T01:09:49;94368.44;;;2.50;72.41
82416;BME280;72058;47.782;10.618;2024-02-21T01:12:16;94362.56;;;2.53;72.88
82416;BME280;72058;47.782;10.618;2024-02-21T01:14:41;94364.56;;;2.41;73.16
82416;BME280;72058;47.782;10.618;2024-02-21T01:17:07;94367.72;;;2.38;73.28
82416;BME280;72058;47.782;10.618;2024-02-21T01:19:32;94355.94;;;2.39;72.99
82416;BME280;72058;47.782;10.618;2024-02-21T01:21:57;94362.16;;;2.23;73.74
82416;BME280;72058;47.782;10.618;2024-02-21T01:24:23;94347.66;;;2.24;73.79
82416;BME280;72058;47.782;10.618;2024-02-21T01:26:49;94339.88;;;2.22;73.94
82416;BME280;72058;47.782;10.618;2024-02-21T01:29:15;94347.25;;;2.32;73.94
82416;BME280;72058;47.782;10.618;2024-02-21T01:31:40;94345.69;;;2.36;73.53
82416;BME280;72058;47.782;10.618;2024-02-21T01:34:05;94343.81;;;2.37;73.42
82416;BME280;72058;47.782;10.618;2024-02-21T01:36:31;94338.69;;;2.35;73.67
82416;BME280;72058;47.782;10.618;2024-02-21T01:38:56;94331.47;;;2.19;73.79
82416;BME280;72058;47.782;10.618;2024-02-21T01:41:21;94334.97;;;2.19;74.45
82416;BME280;72058;47.782;10.618;2024-02-21T01:43:47;94327.06;;;2.29;74.21
82416;BME280;72058;47.782;10.618;2024-02-21T01:46:12;94323.56;;;2.29;73.56
82416;BME280;72058;47.782;10.618;2024-02-21T01:48:37;94327.69;;;2.15;74.14
82416;BME280;72058;47.782;10.618;2024-02-21T01:51:04;94326.53;;;2.11;74.12
82416;BME280;72058;47.782;10.618;2024-02-21T01:53:32;94326.53;;;2.11;74.18
82416;BME280;72058;47.782;10.618;2024-02-21T01:55:57;94322.78;;;2.12;74.17
82416;BME280;72058;47.782;10.618;2024-02-21T01:58:23;94317.75;;;2.15;74.11
82416;BME280;72058;47.782;10.618;2024-02-21T02:00:50;94306.34;;;2.25;73.69
82416;BME280;72058;47.782;10.618;2024-02-21T02:03:15;94309.94;;;2.14;74.04
82416;BME280;72058;47.782;10.618;2024-02-21T02:05:47;94314.03;;;2.16;74.03
82416;BME280;72058;47.782;10.618;2024-02-21T02:08:14;94308.75;;;1.88;75.06
82416;BME280;72058;47.782;10.618;2024-02-21T02:10:40;94299.75;;;1.77;75.51
82416;BME280;72058;47.782;10.618;2024-02-21T02:13:06;94297.03;;;1.94;75.14
82416;BME280;72058;47.782;10.618;2024-02-21T02:15:42;94295.03;;;1.84;75.37
82416;BME280;72058;47.782;10.618;2024-02-21T02:18:08;94305.28;;;1.87;75.34
82416;BME280;72058;47.782;10.618;2024-02-21T02:20:34;94299.03;;;2.20;74.09
82416;BME280;72058;47.782;10.618;2024-02-21T02:22:59;94298.13;;;2.32;73.36
82416;BME280;72058;47.782;10.618;2024-02-21T02:25:27;94301.13;;;2.18;74.02
82416;BME280;72058;47.782;10.618;2024-02-21T02:27:53;94297.31;;;2.31;73.22
82416;BME280;72058;47.782;10.618;2024-02-21T02:30:19;94291.75;;;2.38;72.54
82416;BME280;72058;47.782;10.618;2024-02-21T02:32:45;94289.44;;;2.24;73.09
82416;BME280;72058;47.782;10.618;2024-02-21T02:35:11;94294.66;;;2.14;73.23
82416;BME280;72058;47.782;10.618;2024-02-21T02:37:36;94288.63;;;2.24;72.62
82416;BME280;72058;47.782;10.618;2024-02-21T02:40:05;94274.44;;;2.28;72.77
82416;BME280;72058;47.782;10.618;2024-02-21T02:42:30;94269.75;;;2.19;73.06
82416;BME280;72058;47.782;10.618;2024-02-21T02:44:56;94264.38;;;2.19;73.02
82416;BME280;72058;47.782;10.618;2024-02-21T02:47:22;94262.13;;;2.11;73.02
82416;BME280;72058;47.782;10.618;2024-02-21T02:49:47;94254.50;;;2.03;73.41
82416;BME280;72058;47.782;10.618;2024-02-21T02:52:16;94250.47;;;2.00;73.48
82416;BME280;72058;47.782;10.618;2024-02-21T02:54:41;94251.28;;;2.01;73.25
82416;BME280;72058;47.782;10.618;2024-02-21T02:57:07;94237.50;;;1.92;73.48
82416;BME280;72058;47.782;10.618;2024-02-21T02:59:32;94244.44;;;1.93;73.44
82416;BME280;72058;47.782;10.618;2024-02-21T03:01:57;94244.09;;;2.06;72.85
82416;BME280;72058;47.782;10.618;2024-02-21T03:04:23;94234.31;;;2.17;72.48
82416;BME280;72058;47.782;10.618;2024-02-21T03:06:48;94237.88;;;2.22;72.11
82416;BME280;72058;47.782;10.618;2024-02-21T03:09:14;94231.75;;;2.27;71.79
82416;BME280;72058;47.782;10.618;2024-02-21T03:11:40;94227.44;;;2.26;71.97
82416;BME280;72058;47.782;10.618;2024-02-21T03:14:08;94217.50;;;2.26;71.68
82416;BME280;72058;47.782;10.618;2024-02-21T03:16:33;94214.78;;;2.21;71.78
82416;BME280;72058;47.782;10.618;2024-02-21T03:18:59;94221.44;;;2.19;72.01
82416;BME280;72058;47.782;10.618;2024-02-21T03:21:24;94221.69;;;2.39;71.25
82416;BME280;72058;47.782;10.618;2024-02-21T03:23:49;94216.69;;;2.26;71.41
82416;BME280;72058;47.782;10.618;2024-02-21T03:26:15;94214.88;;;2.10;72.22
82416;BME280;72058;47.782;10.618;2024-02-21T03:28:42;94229.31;;;2.04;72.21
82416;BME280;72058;47.782;10.618;2024-02-21T03:31:11;94225.63;;;1.88;72.57
82416;BME280;72058;47.782;10.618;2024-02-21T03:33:36;94228.25;;;1.83;73.09
82416;BME280;72058;47.782;10.618;2024-02-21T03:36:02;94225.97;;;1.75;73.68
82416;BME280;72058;47.782;10.618;2024-02-21T03:38:27;94224.03;;;1.53;74.57
82416;BME280;72058;47.782;10.618;2024-02-21T03:40:52;94237.75;;;1.74;73.75
82416;BME280;72058;47.782;10.618;2024-02-21T03:43:18;94231.81;;;1.72;74.00
82416;BME280;72058;47.782;10.618;2024-02-21T03:45:43;94239.13;;;1.76;73.64
82416;BME280;72058;47.782;10.618;2024-02-21T03:48:09;94228.75;;;1.63;74.06
82416;BME280;72058;47.782;10.618;2024-02-21T03:50:34;94227.72;;;1.47;74.71
82416;BME280;72058;47.782;10.618;2024-02-21T03:52:59;94220.31;;;1.55;74.55
82416;BME280;72058;47.782;10.618;2024-02-21T03:55:24;94217.22;;;1.46;74.80
82416;BME280;72058;47.782;10.618;2024-02-21T03:57:50;94217.22;;;1.46;74.84
82416;BME280;72058;47.782;10.618;2024-02-21T04:00:15;94210.59;;;1.32;75.74
82416;BME280;72058;47.782;10.618;2024-02-21T04:02:41;94208.72;;;1.32;75.65
82416;BME280;72058;47.782;10.618;2024-02-21T04:05:06;94202.47;;;1.27;75.85
82416;BME280;72058;47.782;10.618;2024-02-21T04:07:36;94201.31;;;1.39;75.27
82416;BME280;72058;47.782;10.618;2024-02-21T04:10:02;94212.88;;;1.40;75.71
82416;BME280;72058;47.782;10.618;2024-02-21T04:12:27;94200.94;;;1.69;74.46
82416;BME280;72058;47.782;10.618;2024-02-21T04:14:52;94198.47;;;1.84;73.36
82416;BME280;72058;47.782;10.618;2024-02-21T04:17:18;94196.09;;;2.10;72.69
82416;BME280;72058;47.782;10.618;2024-02-21T04:19:43;94201.28;;;1.95;72.82
82416;BME280;72058;47.782;10.618;2024-02-21T04:22:08;94196.97;;;1.94;73.11
82416;BME280;72058;47.782;10.618;2024-02-21T04:24:34;94197.94;;;2.04;72.54
82416;BME280;72058;47.782;10.618;2024-02-21T04:26:59;94193.81;;;1.97;72.45
82416;BME280;72058;47.782;10.618;2024-02-21T04:29:24;94191.22;;;1.63;73.82
82416;BME280;72058;47.782;10.618;2024-02-21T04:31:50;94194.44;;;1.82;73.87
82416;BME280;72058;47.782;10.618;2024-02-21T04:34:15;94179.63;;;1.79;73.81
82416;BME280;72058;47.782;10.618;2024-02-21T04:36:40;94174.69;;;1.71;74.12
82416;BME280;72058;47.782;10.618;2024-02-21T04:39:06;94173.22;;;1.80;74.35
82416;BME280;72058;47.782;10.618;2024-02-21T04:41:31;94169.84;;;1.90;73.90
82416;BME280;72058;47.782;10.618;2024-02-21T04:43:56;94177.84;;;2.07;73.30
82416;BME280;72058;47.782;10.618;2024-02-21T04:46:22;94169.41;;;1.98;73.74
82416;BME280;72058;47.782;10.618;2024-02-21T04:48:47;94172.69;;;2.00;73.47
82416;BME280;72058;47.782;10.618;2024-02-21T04:51:12;94170.47;;;1.75;73.99
82416;BME280;72058;47.782;10.618;2024-02-21T04:53:38;94164.91;;;1.43;74.80
82416;BME280;72058;47.782;10.618;2024-02-21T04:56:04;94152.66;;;1.47;75.04
82416;BME280;72058;47.782;10.618;2024-02-21T04:58:29;94142.31;;;1.56;74.97
82416;BME280;72058;47.782;10.618;2024-02-21T05:00:55;94142.75;;;1.70;74.14
82416;BME280;72058;47.782;10.618;2024-02-21T05:03:20;94144.75;;;1.58;74.32
82416;BME280;72058;47.782;10.618;2024-02-21T05:05:46;94134.09;;;1.63;74.46
82416;BME280;72058;47.782;10.618;2024-02-21T05:08:12;94132.38;;;1.73;73.94
82416;BME280;72058;47.782;10.618;2024-02-21T05:10:37;94135.81;;;1.52;74.43
82416;BME280;72058;47.782;10.618;2024-02-21T05:13:03;94131.47;;;1.46;74.27
82416;BME280;72058;47.782;10.618;2024-02-21T05:15:29;94135.06;;;1.35;75.15
82416;BME280;72058;47.782;10.618;2024-02-21T05:17:54;94137.00;;;1.39;75.01
82416;BME280;72058;47.782;10.618;2024-02-21T05:20:20;94126.78;;;1.36;74.59
82416;BME280;72058;47.782;10.618;2024-02-21T05:22:45;94119.34;;;1.43;74.67
82416;BME280;72058;47.782;10.618;2024-02-21T05:25:10;94118.44;;;1.33;75.47
82416;BME280;72058;47.782;10.618;2024-02-21T05:27:36;94112.75;;;1.51;74.83
82416;BME280;72058;47.782;10.618;2024-02-21T05:30:02;94099.47;;;1.39;74.88
82416;BME280;72058;47.782;10.618;2024-02-21T05:32:28;94089.56;;;1.40;75.12
82416;BME280;72058;47.782;10.618;2024-02-21T05:34:53;94084.59;;;1.48;74.67
82416;BME280;72058;47.782;10.618;2024-02-21T05:37:18;94084.78;;;1.42;74.27
82416;BME280;72058;47.782;10.618;2024-02-21T05:39:44;94085.09;;;1.67;73.76
82416;BME280;72058;47.782;10.618;2024-02-21T05:42:09;94082.53;;;1.77;73.11
82416;BME280;72058;47.782;10.618;2024-02-21T05:44:34;94075.09;;;1.84;72.76
82416;BME280;72058;47.782;10.618;2024-02-21T05:47:00;94093.88;;;1.84;72.50
82416;BME280;72058;47.782;10.618;2024-02-21T05:49:25;94091.13;;;1.79;72.68
82416;BME280;72058;47.782;10.618;2024-02-21T05:51:50;94080.09;;;1.76;72.88
82416;BME280;72058;47.782;10.618;2024-02-21T05:54:16;94067.13;;;1.89;72.21
82416;BME280;72058;47.782;10.618;2024-02-21T05:56:47;94058.72;;;2.08;71.79
82416;BME280;72058;47.782;10.618;2024-02-21T05:59:12;94071.13;;;2.14;71.15
82416;BME280;72058;47.782;10.618;2024-02-21T06:01:39;94061.50;;;2.18;70.70
82416;BME280;72058;47.782;10.618;2024-02-21T06:04:04;94058.88;;;2.23;70.17
82416;BME280;72058;47.782;10.618;2024-02-21T06:06:30;94055.38;;;1.96;71.24
82416;BME280;72058;47.782;10.618;2024-02-21T06:08:55;94054.16;;;1.81;72.26
82416;BME280;72058;47.782;10.618;2024-02-21T06:11:21;94049.41;;;1.88;72.30
82416;BME280;72058;47.782;10.618;2024-02-21T06:13:46;94046.00;;;1.71;73.18
82416;BME280;72058;47.782;10.618;2024-02-21T06:16:11;94046.81;;;1.72;73.14
82416;BME280;72058;47.782;10.618;2024-02-21T06:18:37;94046.59;;;1.78;72.80
82416;BME280;72058;47.782;10.618;2024-02-21T06:21:03;94041.25;;;1.78;72.69
82416;BME280;72058;47.782;10.618;2024-02-21T06:23:28;94036.69;;;1.79;72.36
82416;BME280;72058;47.782;10.618;2024-02-21T06:25:54;94036.44;;;1.80;72.31
82416;BME280;72058;47.782;10.618;2024-02-21T06:28:19;94035.88;;;1.78;72.22
82416;BME280;72058;47.782;10.618;2024-02-21T06:30:45;94044.72;;;2.01;71.49
82416;BME280;72058;47.782;10.618;2024-02-21T06:33:11;94051.31;;;2.20;70.28
82416;BME280;72058;47.782;10.618;2024-02-21T06:35:36;94057.81;;;2.24;69.53
82416;BME280;72058;47.782;10.618;2024-02-21T06:38:02;94061.94;;;2.37;68.79
82416;BME280;72058;47.782;10.618;2024-02-21T06:40:28;94064.72;;;2.47;68.26
82416;BME280;72058;47.782;10.618;2024-02-21T06:42:53;94063.44;;;2.54;67.38
82416;BME280;72058;47.782;10.618;2024-02-21T06:45:19;94058.66;;;2.61;67.11
82416;BME280;72058;47.782;10.618;2024-02-21T06:47:44;94065.09;;;2.60;67.52
82416;BME280;72058;47.782;10.618;2024-02-21T06:50:09;94062.19;;;2.35;68.47
82416;BME280;72058;47.782;10.618;2024-02-21T06:52:36;94064.88;;;2.35;68.47
82416;BME280;72058;47.782;10.618;2024-02-21T06:55:01;94064.50;;;2.21;68.76
82416;BME280;72058;47.782;10.618;2024-02-21T06:57:28;94062.06;;;2.20;69.31
82416;BME280;72058;47.782;10.618;2024-02-21T06:59:53;94062.88;;;2.20;69.76
82416;BME280;72058;47.782;10.618;2024-02-21T07:02:18;94056.44;;;2.21;70.28
82416;BME280;72058;47.782;10.618;2024-02-21T07:04:44;94058.63;;;2.24;69.69
82416;BME280;72058;47.782;10.618;2024-02-21T07:07:09;94061.91;;;2.32;69.85
82416;BME280;72058;47.782;10.618;2024-02-21T07:09:34;94059.16;;;2.26;70.21
82416;BME280;72058;47.782;10.618;2024-02-21T07:12:00;94051.53;;;2.40;70.09
82416;BME280;72058;47.782;10.618;2024-02-21T07:14:28;94051.44;;;2.62;70.01
82416;BME280;72058;47.782;10.618;2024-02-21T07:16:53;94046.28;;;2.55;69.13
82416;BME280;72058;47.782;10.618;2024-02-21T07:19:19;94038.03;;;2.35;69.00
82416;BME280;72058;47.782;10.618;2024-02-21T07:21:44;94032.88;;;2.28;69.10
82416;BME280;72058;47.782;10.618;2024-02-21T07:24:10;94022.13;;;2.23;68.79
82416;BME280;72058;47.782;10.618;2024-02-21T07:26:35;94015.34;;;2.16;68.67
82416;BME280;72058;47.782;10.618;2024-02-21T07:29:00;94018.03;;;2.16;68.83
82416;BME280;72058;47.782;10.618;2024-02-21T07:31:26;94014.31;;;2.22;68.64
82416;BME280;72058;47.782;10.618;2024-02-21T07:33:51;94013.50;;;2.21;68.63
82416;BME280;72058;47.782;10.618;2024-02-21T07:36:28;94011.03;;;2.15;69.01
82416;BME280;72058;47.782;10.618;2024-02-21T07:38:54;94004.41;;;2.22;68.65
82416;BME280;72058;47.782;10.618;2024-02-21T07:41:20;93998.56;;;2.31;68.68
82416;BME280;72058;47.782;10.618;2024-02-21T07:43:45;94003.59;;;2.22;68.16
82416;BME280;72058;47.782;10.618;2024-02-21T07:46:10;94002.53;;;2.23;68.46
82416;BME280;72058;47.782;10.618;2024-02-21T07:48:36;94007.88;;;2.23;68.07
82416;BME280;72058;47.782;10.618;2024-02-21T07:51:01;94010.13;;;2.36;67.86
82416;BME280;72058;47.782;10.618;2024-02-21T07:53:27;94020.81;;;2.63;67.19
82416;BME280;72058;47.782;10.618;2024-02-21T07:55:52;94015.63;;;2.88;66.14
82416;BME280;72058;47.782;10.618;2024-02-21T07:58:17;94019.72;;;2.96;65.60
82416;BME280;72058;47.782;10.618;2024-02-21T08:00:43;94009.53;;;2.98;65.39
82416;BME280;72058;47.782;10.618;2024-02-21T08:03:08;94003.94;;;3.10;65.38
82416;BME280;72058;47.782;10.618;2024-02-21T08:05:36;93998.66;;;3.25;65.04
82416;BME280;72058;47.782;10.618;2024-02-21T08:08:03;93991.16;;;3.37;63.97
82416;BME280;72058;47.782;10.618;2024-02-21T08:10:28;93992.59;;;3.55;64.38
82416;BME280;72058;47.782;10.618;2024-02-21T08:12:54;93979.19;;;3.65;63.15
82416;BME280;72058;47.782;10.618;2024-02-21T08:15:19;93980.28;;;3.74;63.20
82416;BME280;72058;47.782;10.618;2024-02-21T08:17:45;93973.81;;;3.85;63.81
82416;BME280;72058;47.782;10.618;2024-02-21T08:20:11;93974.16;;;4.09;62.18
82416;BME280;72058;47.782;10.618;2024-02-21T08:22:39;93970.38;;;4.20;61.56
82416;BME280;72058;47.782;10.618;2024-02-21T08:25:04;93959.88;;;4.44;61.73
82416;BME280;72058;47.782;10.618;2024-02-21T08:27:31;93962.03;;;4.77;59.11
82416;BME280;72058;47.782;10.618;2024-02-21T08:29:56;93952.00;;;5.08;57.47
82416;BME280;72058;47.782;10.618;2024-02-21T08:32:21;93946.81;;;5.22;57.59
82416;BME280;72058;47.782;10.618;2024-02-21T08:34:47;93941.38;;;5.37;56.68
82416;BME280;72058;47.782;10.618;2024-02-21T08:37:12;93939.44;;;5.48;55.98
82416;BME280;72058;47.782;10.618;2024-02-21T08:39:37;93941.25;;;5.62;56.28
82416;BME280;72058;47.782;10.618;2024-02-21T08:42:03;93937.91;;;5.86;55.45
82416;BME280;72058;47.782;10.618;2024-02-21T08:44:28;93938.19;;;5.89;54.94
82416;BME280;72058;47.782;10.618;2024-02-21T08:46:54;93941.69;;;5.90;54.09
82416;BME280;72058;47.782;10.618;2024-02-21T08:49:19;93942.75;;;5.94;53.06
82416;BME280;72058;47.782;10.618;2024-02-21T08:51:45;93939.25;;;5.88;53.50
82416;BME280;72058;47.782;10.618;2024-02-21T08:54:11;93939.50;;;5.87;53.49
82416;BME280;72058;47.782;10.618;2024-02-21T08:56:37;93934.66;;;5.94;53.01
82416;BME280;72058;47.782;10.618;2024-02-21T08:59:02;93924.84;;;6.03;53.36
82416;BME280;72058;47.782;10.618;2024-02-21T09:01:28;93922.38;;;6.12;52.82
82416;BME280;72058;47.782;10.618;2024-02-21T09:03:54;93921.22;;;6.23;54.04
82416;BME280;72058;47.782;10.618;2024-02-21T09:06:21;93910.66;;;6.26;52.92
82416;BME280;72058;47.782;10.618;2024-02-21T09:08:47;93919.81;;;6.30;54.46
82416;BME280;72058;47.782;10.618;2024-02-21T09:11:12;93919.94;;;6.49;54.75
82416;BME280;72058;47.782;10.618;2024-02-21T09:13:37;93915.19;;;6.65;52.59
82416;BME280;72058;47.782;10.618;2024-02-21T09:16:03;93915.56;;;6.82;52.76
82416;BME280;72058;47.782;10.618;2024-02-21T09:18:29;93911.34;;;7.00;51.48
82416;BME280;72058;47.782;10.618;2024-02-21T09:20:54;93912.59;;;7.07;51.11
82416;BME280;72058;47.782;10.618;2024-02-21T09:23:20;93914.78;;;7.05;52.50
82416;BME280;72058;47.782;10.618;2024-02-21T09:25:45;93912.06;;;7.05;52.16
82416;BME280;72058;47.782;10.618;2024-02-21T09:28:12;93910.63;;;7.13;51.93
82416;BME280;72058;47.782;10.618;2024-02-21T09:30:38;93911.53;;;7.03;52.88
82416;BME280;72058;47.782;10.618;2024-02-21T09:33:04;93909.72;;;6.99;53.76
82416;BME280;72058;47.782;10.618;2024-02-21T09:35:30;93918.00;;;7.07;53.39
82416;BME280;72058;47.782;10.618;2024-02-21T09:37:55;93916.63;;;7.10;54.08
82416;BME280;72058;47.782;10.618;2024-02-21T09:40:21;93916.28;;;7.40;50.99
82416;BME280;72058;47.782;10.618;2024-02-21T09:42:48;93909.22;;;7.44;49.45
82416;BME280;72058;47.782;10.618;2024-02-21T09:45:21;93910.66;;;7.55;48.54
82416;BME280;72058;47.782;10.618;2024-02-21T09:50:31;93909.28;;;7.58;49.07
82416;BME280;72058;47.782;10.618;2024-02-21T09:53:00;93911.22;;;7.76;46.99
82416;BME280;72058;47.782;10.618;2024-02-21T09:55:29;93908.53;;;7.95;47.36
82416;BME280;72058;47.782;10.618;2024-02-21T09:57:55;93906.56;;;8.00;46.65
82416;BME280;72058;47.782;10.618;2024-02-21T10:00:22;93902.75;;;8.02;46.59
82416;BME280;72058;47.782;10.618;2024-02-21T10:02:48;93907.66;;;7.99;50.45
82416;BME280;72058;47.782;10.618;2024-02-21T10:05:15;93910.72;;;8.12;47.11
82416;BME280;72058;47.782;10.618;2024-02-21T10:07:40;93899.00;;;8.16;45.24
82416;BME280;72058;47.782;10.618;2024-02-21T10:10:06;93896.00;;;7.99;50.34
82416;BME280;72058;47.782;10.618;2024-02-21T10:12:32;93891.97;;;7.96;48.71
82416;BME280;72058;47.782;10.618;2024-02-21T10:15:05;93890.63;;;8.13;44.37
82416;BME280;72058;47.782;10.618;2024-02-21T10:17:32;93880.25;;;8.20;43.34
82416;BME280;72058;47.782;10.618;2024-02-21T10:20:07;93883.41;;;8.27;47.08
82416;BME280;72058;47.782;10.618;2024-02-21T10:22:33;93885.88;;;8.23;48.53
82416;BME280;72058;47.782;10.618;2024-02-21T10:25:10;93882.59;;;8.26;45.78
82416;BME280;72058;47.782;10.618;2024-02-21T10:27:36;93867.06;;;8.32;41.83
82416;BME280;72058;47.782;10.618;2024-02-21T10:30:02;93863.81;;;8.30;47.75
82416;BME280;72058;47.782;10.618;2024-02-21T10:32:28;93862.16;;;8.15;46.86
82416;BME280;72058;47.782;10.618;2024-02-21T10:35:03;93863.34;;;8.28;41.47
82416;BME280;72058;47.782;10.618;2024-02-21T10:37:31;93852.31;;;8.38;44.53
82416;BME280;72058;47.782;10.618;2024-02-21T10:39:59;93848.00;;;8.37;43.63
82416;BME280;72058;47.782;10.618;2024-02-21T10:42:28;93852.03;;;8.40;43.85
82416;BME280;72058;47.782;10.618;2024-02-21T10:45:00;93854.16;;;8.43;44.31
82416;BME280;72058;47.782;10.618;2024-02-21T10:47:28;93848.88;;;8.51;43.86
82416;BME280;72058;47.782;10.618;2024-02-21T10:50:03;93842.25;;;8.57;42.35
82416;BME280;72058;47.782;10.618;2024-02-21T10:55:38;93829.22;;;8.73;45.57
82416;BME280;72058;47.782;10.618;2024-02-21T10:58:06;93830.13;;;8.68;45.24
82416;BME280;72058;47.782;10.618;2024-02-21T11:00:33;93823.38;;;8.80;43.68
82416;BME280;72058;47.782;10.618;2024-02-21T11:02:59;93814.25;;;8.75;44.22
82416;BME280;72058;47.782;10.618;2024-02-21T11:05:25;93808.13;;;8.70;44.81
82416;BME280;72058;47.782;10.618;2024-02-21T11:07:53;93801.78;;;8.74;44.92
82416;BME280;72058;47.782;10.618;2024-02-21T11:10:25;93801.69;;;8.80;46.83
82416;BME280;72058;47.782;10.618;2024-02-21T11:13:09;93793.28;;;8.95;45.14
82416;BME280;72058;47.782;10.618;2024-02-21T11:15:35;93793.75;;;8.97;43.99
82416;BME280;72058;47.782;10.618;2024-02-21T11:18:00;93776.69;;;9.10;44.09
82416;BME280;72058;47.782;10.618;2024-02-21T11:20:35;93776.78;;;9.19;45.21
82416;BME280;72058;47.782;10.618;2024-02-21T11:23:01;93771.13;;;9.15;45.22
82416;BME280;72058;47.782;10.618;2024-02-21T11:25:28;93765.53;;;9.11;48.57
82416;BME280;72058;47.782;10.618;2024-02-21T11:28:02;93764.19;;;9.23;44.24
82416;BME280;72058;47.782;10.618;2024-02-21T11:30:30;93763.59;;;9.26;46.22
82416;BME280;72058;47.782;10.618;2024-02-21T11:33:02;93753.63;;;9.35;45.48
82416;BME280;72058;47.782;10.618;2024-02-21T11:35:33;93738.31;;;9.39;45.67
82416;BME280;72058;47.782;10.618;2024-02-21T11:38:11;93746.75;;;9.37;48.26
82416;BME280;72058;47.782;10.618;2024-02-21T11:40:44;93736.31;;;9.44;45.20
82416;BME280;72058;47.782;10.618;2024-02-21T11:43:09;93722.59;;;9.49;43.68
82416;BME280;72058;47.782;10.618;2024-02-21T11:45:35;93722.72;;;9.44;45.34
82416;BME280;72058;47.782;10.618;2024-02-21T11:48:00;93719.28;;;9.52;43.95
82416;BME280;72058;47.782;10.618;2024-02-21T11:50:28;93714.00;;;9.70;43.06
82416;BME280;72058;47.782;10.618;2024-02-21T11:52:54;93708.06;;;9.68;43.08
82416;BME280;72058;47.782;10.618;2024-02-21T11:55:20;93713.06;;;9.74;45.86
82416;BME280;72058;47.782;10.618;2024-02-21T11:57:48;93704.66;;;9.84;43.54
82416;BME280;72058;47.782;10.618;2024-02-21T12:00:17;93697.81;;;9.87;43.42
82416;BME280;72058;47.782;10.618;2024-02-21T12:02:45;93695.41;;;9.85;43.22
82416;BME280;72058;47.782;10.618;2024-02-21T12:05:11;93693.66;;;9.89;44.91
82416;BME280;72058;47.782;10.618;2024-02-21T12:07:37;93683.59;;;9.90;41.49
82416;BME280;72058;47.782;10.618;2024-02-21T12:10:09;93674.69;;;9.98;40.77
82416;BME280;72058;47.782;10.618;2024-02-21T12:12:35;93662.94;;;10.11;40.65
82416;BME280;72058;47.782;10.618;2024-02-21T12:15:03;93659.28;;;10.16;42.54
82416;BME280;72058;47.782;10.618;2024-02-21T12:17:30;93658.06;;;10.22;40.64
82416;BME280;72058;47.782;10.618;2024-02-21T12:19:56;93662.56;;;10.26;43.80
82416;BME280;72058;47.782;10.618;2024-02-21T12:22:22;93647.50;;;10.20;43.80
82416;BME280;72058;47.782;10.618;2024-02-21T12:24:47;93640.31;;;10.24;41.15
82416;BME280;72058;47.782;10.618;2024-02-21T12:27:13;93645.16;;;10.27;44.29
82416;BME280;72058;47.782;10.618;2024-02-21T12:29:38;93630.44;;;10.29;43.83
82416;BME280;72058;47.782;10.618;2024-02-21T12:32:04;93628.03;;;10.27;44.55
82416;BME280;72058;47.782;10.618;2024-02-21T12:34:30;93627.72;;;10.29;44.83
82416;BME280;72058;47.782;10.618;2024-02-21T12:36:58;93623.88;;;10.38;42.44
82416;BME280;72058;47.782;10.618;2024-02-21T12:39:24;93614.13;;;10.29;45.06
82416;BME280;72058;47.782;10.618;2024-02-21T12:41:49;93612.53;;;10.27;45.98
82416;BME280;72058;47.782;10.618;2024-02-21T12:44:15;93606.31;;;10.36;45.64
82416;BME280;72058;47.782;10.618;2024-02-21T12:46:42;93602.94;;;10.39;44.93
82416;BME280;72058;47.782;10.618;2024-02-21T12:49:08;93600.56;;;10.37;45.58
82416;BME280;72058;47.782;10.618;2024-02-21T12:51:34;93596.88;;;10.42;45.40
82416;BME280;72058;47.782;10.618;2024-02-21T12:54:00;93601.22;;;10.43;45.55
82416;BME280;72058;47.782;10.618;2024-02-21T12:56:26;93587.00;;;10.46;43.48
82416;BME280;72058;47.782;10.618;2024-02-21T12:58:52;93582.81;;;10.48;46.43
82416;BME280;72058;47.782;10.618;2024-02-21T13:01:18;93585.06;;;10.55;45.87